sensor_id;sensor_type;location;lat;lon;timestamp;temperature;humidity
51950;DHT22;37974;53.218;6.640;2023-08-08T00:01:06;13.30;99.90
51950;DHT22;37974;53.218;6.640;2023-08-08T00:03:33;13.20;99.90
51950;DHT22;37974;53.218;6.640;2023-08-08T00:05:59;13.20;99.90
51950;DHT22;37974;53.218;6.640;2023-08-08T00:08:25;13.20;99.90
51950;DHT22;37974;53.218;6.640;2023-08-08T00:10:51;13.10;99.90
51950;DHT22;37974;53.218;6.640;2023-08-08T00:13:16;13.10;99.90
51950;DHT22;37974;53.218;6.640;2023-08-08T00:15:42;13.10;99.90
51950;DHT22;37974;53.218;6.640;2023-08-08T00:18:08;13.10;99.90
51950;DHT22;37974;53.218;6.640;2023-08-08T00:20:34;13.10;99.90
51950;DHT22;37974;53.218;6.640;2023-08-08T00:22:59;13.20;99.90
51950;DHT22;37974;53.218;6.640;2023-08-08T00:25:25;13.20;99.90
51950;DHT22;37974;53.218;6.640;2023-08-08T00:27:51;13.30;99.90
51950;DHT22;37974;53.218;6.640;2023-08-08T00:30:16;13.20;99.90
51950;DHT22;37974;53.218;6.640;2023-08-08T00:32:42;13.20;99.90
51950;DHT22;37974;53.218;6.640;2023-08-08T00:35:08;13.20;99.90
51950;DHT22;37974;53.218;6.640;2023-08-08T00:37:34;13.10;99.90
51950;DHT22;37974;53.218;6.640;2023-08-08T00:40:00;13.10;99.90
51950;DHT22;37974;53.218;6.640;2023-08-08T00:42:26;13.00;99.90
51950;DHT22;37974;53.218;6.640;2023-08-08T00:44:51;13.00;99.90
51950;DHT22;37974;53.218;6.640;2023-08-08T00:47:17;13.00;99.90
51950;DHT22;37974;53.218;6.640;2023-08-08T00:49:43;13.00;99.90
51950;DHT22;37974;53.218;6.640;2023-08-08T00:52:12;12.90;99.90
51950;DHT22;37974;53.218;6.640;2023-08-08T00:54:38;12.90;99.90
51950;DHT22;37974;53.218;6.640;2023-08-08T00:57:04;12.90;99.90
51950;DHT22;37974;53.218;6.640;2023-08-08T00:59:31;12.90;99.90
51950;DHT22;37974;53.218;6.640;2023-08-08T01:01:58;12.90;99.90
51950;DHT22;37974;53.218;6.640;2023-08-08T01:04:26;12.80;99.90
51950;DHT22;37974;53.218;6.640;2023-08-08T01:07:25;12.80;99.90
51950;DHT22;37974;53.218;6.640;2023-08-08T01:10:05;12.80;99.90
51950;DHT22;37974;53.218;6.640;2023-08-08T01:12:41;12.70;99.90
51950;DHT22;37974;53.218;6.640;2023-08-08T01:15:07;12.80;99.90
51950;DHT22;37974;53.218;6.640;2023-08-08T01:17:35;12.70;99.90
51950;DHT22;37974;53.218;6.640;2023-08-08T01:20:06;12.70;99.90
51950;DHT22;37974;53.218;6.640;2023-08-08T01:22:39;12.70;99.90
51950;DHT22;37974;53.218;6.640;2023-08-08T01:25:07;12.70;99.90
51950;DHT22;37974;53.218;6.640;2023-08-08T01:27:33;12.70;99.90
51950;DHT22;37974;53.218;6.640;2023-08-08T01:29:59;12.70;99.90
51950;DHT22;37974;53.218;6.640;2023-08-08T01:32:25;12.70;99.90
51950;DHT22;37974;53.218;6.640;2023-08-08T01:34:51;12.60;99.90
51950;DHT22;37974;53.218;6.640;2023-08-08T01:37:32;12.60;99.90
51950;DHT22;37974;53.218;6.640;2023-08-08T01:40:00;12.60;99.90
51950;DHT22;37974;53.218;6.640;2023-08-08T01:42:27;12.70;99.90
51950;DHT22;37974;53.218;6.640;2023-08-08T01:44:53;12.80;99.90
51950;DHT22;37974;53.218;6.640;2023-08-08T01:47:20;12.80;99.90
51950;DHT22;37974;53.218;6.640;2023-08-08T01:49:45;12.90;99.90
51950;DHT22;37974;53.218;6.640;2023-08-08T01:52:11;12.90;99.90
51950;DHT22;37974;53.218;6.640;2023-08-08T01:54:37;12.90;99.90
51950;DHT22;37974;53.218;6.640;2023-08-08T01:57:03;13.00;99.90
51950;DHT22;37974;53.218;6.640;2023-08-08T01:59:28;13.10;99.90
51950;DHT22;37974;53.218;6.640;2023-08-08T02:01:54;13.10;99.90
51950;DHT22;37974;53.218;6.640;2023-08-08T02:04:20;13.20;99.90
51950;DHT22;37974;53.218;6.640;2023-08-08T02:06:46;13.20;99.90
51950;DHT22;37974;53.218;6.640;2023-08-08T02:09:12;13.30;99.90
51950;DHT22;37974;53.218;6.640;2023-08-08T02:11:40;13.30;99.90
51950;DHT22;37974;53.218;6.640;2023-08-08T02:14:06;13.30;99.90
51950;DHT22;37974;53.218;6.640;2023-08-08T02:16:31;13.30;99.90
51950;DHT22;37974;53.218;6.640;2023-08-08T02:18:57;13.40;99.90
51950;DHT22;37974;53.218;6.640;2023-08-08T02:21:23;13.40;99.90
51950;DHT22;37974;53.218;6.640;2023-08-08T02:23:48;13.40;99.90
51950;DHT22;37974;53.218;6.640;2023-08-08T02:26:14;13.40;99.90
51950;DHT22;37974;53.218;6.640;2023-08-08T02:28:40;13.40;99.90
51950;DHT22;37974;53.218;6.640;2023-08-08T02:31:06;13.50;99.90
51950;DHT22;37974;53.218;6.640;2023-08-08T02:33:32;13.50;99.90
51950;DHT22;37974;53.218;6.640;2023-08-08T02:35:58;13.50;99.90
51950;DHT22;37974;53.218;6.640;2023-08-08T02:38:23;13.50;99.90
51950;DHT22;37974;53.218;6.640;2023-08-08T02:40:49;13.60;99.90
51950;DHT22;37974;53.218;6.640;2023-08-08T02:43:15;13.60;99.90
51950;DHT22;37974;53.218;6.640;2023-08-08T02:45:42;13.60;99.90
51950;DHT22;37974;53.218;6.640;2023-08-08T02:48:07;13.50;99.90
51950;DHT22;37974;53.218;6.640;2023-08-08T02:50:33;13.50;99.90
51950;DHT22;37974;53.218;6.640;2023-08-08T02:52:59;13.50;99.90
51950;DHT22;37974;53.218;6.640;2023-08-08T02:55:24;13.50;99.90
51950;DHT22;37974;53.218;6.640;2023-08-08T02:57:50;13.50;99.90
51950;DHT22;37974;53.218;6.640;2023-08-08T03:00:16;13.40;99.90
51950;DHT22;37974;53.218;6.640;2023-08-08T03:02:42;13.50;99.90
51950;DHT22;37974;53.218;6.640;2023-08-08T03:05:08;13.50;99.90
51950;DHT22;37974;53.218;6.640;2023-08-08T03:07:34;13.50;99.90
51950;DHT22;37974;53.218;6.640;2023-08-08T03:10:00;13.50;99.90
51950;DHT22;37974;53.218;6.640;2023-08-08T03:12:26;13.50;99.90
51950;DHT22;37974;53.218;6.640;2023-08-08T03:14:51;13.50;99.90
51950;DHT22;37974;53.218;6.640;2023-08-08T03:17:17;13.50;99.90
51950;DHT22;37974;53.218;6.640;2023-08-08T03:19:43;13.50;99.90
51950;DHT22;37974;53.218;6.640;2023-08-08T03:22:09;13.50;99.90
51950;DHT22;37974;53.218;6.640;2023-08-08T03:24:34;13.50;99.90
51950;DHT22;37974;53.218;6.640;2023-08-08T03:27:00;13.50;99.90
51950;DHT22;37974;53.218;6.640;2023-08-08T03:29:26;13.40;99.90
51950;DHT22;37974;53.218;6.640;2023-08-08T03:31:52;13.40;99.90
51950;DHT22;37974;53.218;6.640;2023-08-08T03:34:17;13.40;99.90
51950;DHT22;37974;53.218;6.640;2023-08-08T03:36:43;13.40;99.90
51950;DHT22;37974;53.218;6.640;2023-08-08T03:39:08;13.40;99.90
51950;DHT22;37974;53.218;6.640;2023-08-08T03:41:34;13.40;99.90
51950;DHT22;37974;53.218;6.640;2023-08-08T03:44:00;13.40;99.90
51950;DHT22;37974;53.218;6.640;2023-08-08T03:46:28;13.40;99.90
51950;DHT22;37974;53.218;6.640;2023-08-08T03:48:54;13.30;99.90
51950;DHT22;37974;53.218;6.640;2023-08-08T03:51:20;13.30;99.90
51950;DHT22;37974;53.218;6.640;2023-08-08T03:53:46;13.30;99.90
51950;DHT22;37974;53.218;6.640;2023-08-08T03:56:11;13.20;99.90
51950;DHT22;37974;53.218;6.640;2023-08-08T03:58:38;13.20;99.90
51950;DHT22;37974;53.218;6.640;2023-08-08T04:01:04;13.00;99.90
51950;DHT22;37974;53.218;6.640;2023-08-08T04:03:30;13.00;99.90
51950;DHT22;37974;53.218;6.640;2023-08-08T04:05:55;12.90;99.90
51950;DHT22;37974;53.218;6.640;2023-08-08T04:08:21;12.80;99.90
51950;DHT22;37974;53.218;6.640;2023-08-08T04:10:47;12.80;99.90
51950;DHT22;37974;53.218;6.640;2023-08-08T04:13:13;12.80;99.90
51950;DHT22;37974;53.218;6.640;2023-08-08T04:15:39;12.80;99.90
51950;DHT22;37974;53.218;6.640;2023-08-08T04:18:05;12.90;99.90
51950;DHT22;37974;53.218;6.640;2023-08-08T04:20:33;12.90;99.90
51950;DHT22;37974;53.218;6.640;2023-08-08T04:22:59;12.90;99.90
51950;DHT22;37974;53.218;6.640;2023-08-08T04:25:25;13.00;99.90
51950;DHT22;37974;53.218;6.640;2023-08-08T04:27:54;13.00;99.90
51950;DHT22;37974;53.218;6.640;2023-08-08T04:30:20;13.00;99.90
51950;DHT22;37974;53.218;6.640;2023-08-08T04:32:45;13.10;99.90
51950;DHT22;37974;53.218;6.640;2023-08-08T04:35:11;13.10;99.90
51950;DHT22;37974;53.218;6.640;2023-08-08T04:37:37;13.10;99.90
51950;DHT22;37974;53.218;6.640;2023-08-08T04:40:03;13.10;99.90
51950;DHT22;37974;53.218;6.640;2023-08-08T04:42:29;13.10;99.90
51950;DHT22;37974;53.218;6.640;2023-08-08T04:44:55;13.10;99.90
51950;DHT22;37974;53.218;6.640;2023-08-08T04:47:21;13.10;99.90
51950;DHT22;37974;53.218;6.640;2023-08-08T04:49:46;13.10;99.90
51950;DHT22;37974;53.218;6.640;2023-08-08T04:52:12;13.20;99.90
51950;DHT22;37974;53.218;6.640;2023-08-08T04:54:38;13.20;99.90
51950;DHT22;37974;53.218;6.640;2023-08-08T04:57:04;13.20;99.90
51950;DHT22;37974;53.218;6.640;2023-08-08T04:59:29;13.30;99.90
51950;DHT22;37974;53.218;6.640;2023-08-08T05:01:55;13.40;99.90
51950;DHT22;37974;53.218;6.640;2023-08-08T05:04:21;13.40;99.90
51950;DHT22;37974;53.218;6.640;2023-08-08T05:06:47;13.40;99.90
51950;DHT22;37974;53.218;6.640;2023-08-08T05:09:12;13.50;99.90
51950;DHT22;37974;53.218;6.640;2023-08-08T05:11:38;13.60;99.90
51950;DHT22;37974;53.218;6.640;2023-08-08T05:14:04;13.60;99.90
51950;DHT22;37974;53.218;6.640;2023-08-08T05:16:29;13.70;99.90
51950;DHT22;37974;53.218;6.640;2023-08-08T05:18:55;13.70;99.90
51950;DHT22;37974;53.218;6.640;2023-08-08T05:21:21;13.70;99.90
51950;DHT22;37974;53.218;6.640;2023-08-08T05:23:47;13.80;99.90
51950;DHT22;37974;53.218;6.640;2023-08-08T05:26:14;13.80;99.90
51950;DHT22;37974;53.218;6.640;2023-08-08T05:28:40;13.90;99.90
51950;DHT22;37974;53.218;6.640;2023-08-08T05:31:06;13.90;99.90
51950;DHT22;37974;53.218;6.640;2023-08-08T05:33:32;14.00;99.90
51950;DHT22;37974;53.218;6.640;2023-08-08T05:35:57;14.00;99.90
51950;DHT22;37974;53.218;6.640;2023-08-08T05:38:23;14.10;99.90
51950;DHT22;37974;53.218;6.640;2023-08-08T05:40:49;14.20;99.90
51950;DHT22;37974;53.218;6.640;2023-08-08T05:43:15;14.10;99.90
51950;DHT22;37974;53.218;6.640;2023-08-08T05:45:44;14.30;99.90
51950;DHT22;37974;53.218;6.640;2023-08-08T05:48:11;14.30;99.90
51950;DHT22;37974;53.218;6.640;2023-08-08T05:50:38;14.30;99.90
51950;DHT22;37974;53.218;6.640;2023-08-08T05:53:04;14.40;99.90
51950;DHT22;37974;53.218;6.640;2023-08-08T05:55:30;14.40;99.90
51950;DHT22;37974;53.218;6.640;2023-08-08T05:57:56;14.40;99.90
51950;DHT22;37974;53.218;6.640;2023-08-08T06:00:21;14.50;99.90
51950;DHT22;37974;53.218;6.640;2023-08-08T06:02:48;14.70;99.90
51950;DHT22;37974;53.218;6.640;2023-08-08T06:05:13;14.60;99.90
51950;DHT22;37974;53.218;6.640;2023-08-08T06:07:39;14.70;99.90
51950;DHT22;37974;53.218;6.640;2023-08-08T06:10:06;14.70;99.90
51950;DHT22;37974;53.218;6.640;2023-08-08T06:12:31;14.80;99.90
51950;DHT22;37974;53.218;6.640;2023-08-08T06:14:57;14.90;99.90
51950;DHT22;37974;53.218;6.640;2023-08-08T06:17:23;14.90;99.90
51950;DHT22;37974;53.218;6.640;2023-08-08T06:19:49;15.00;99.90
51950;DHT22;37974;53.218;6.640;2023-08-08T06:22:19;15.00;99.90
51950;DHT22;37974;53.218;6.640;2023-08-08T06:24:45;15.10;99.90
51950;DHT22;37974;53.218;6.640;2023-08-08T06:27:12;15.10;99.90
51950;DHT22;37974;53.218;6.640;2023-08-08T06:29:39;15.20;99.90
51950;DHT22;37974;53.218;6.640;2023-08-08T06:32:04;15.30;99.90
51950;DHT22;37974;53.218;6.640;2023-08-08T06:34:30;15.30;99.90
51950;DHT22;37974;53.218;6.640;2023-08-08T06:36:56;15.40;99.90
51950;DHT22;37974;53.218;6.640;2023-08-08T06:39:21;15.50;99.90
51950;DHT22;37974;53.218;6.640;2023-08-08T06:41:48;15.50;99.90
51950;DHT22;37974;53.218;6.640;2023-08-08T06:44:13;15.60;99.90
51950;DHT22;37974;53.218;6.640;2023-08-08T06:46:39;15.70;99.90
51950;DHT22;37974;53.218;6.640;2023-08-08T06:49:05;15.80;99.90
51950;DHT22;37974;53.218;6.640;2023-08-08T06:51:33;15.80;99.90
51950;DHT22;37974;53.218;6.640;2023-08-08T06:54:00;15.90;99.90
51950;DHT22;37974;53.218;6.640;2023-08-08T06:56:26;16.00;99.90
51950;DHT22;37974;53.218;6.640;2023-08-08T06:58:53;16.10;99.90
51950;DHT22;37974;53.218;6.640;2023-08-08T07:01:19;16.30;99.90
51950;DHT22;37974;53.218;6.640;2023-08-08T07:03:45;16.30;99.90
51950;DHT22;37974;53.218;6.640;2023-08-08T07:06:12;16.40;99.90
51950;DHT22;37974;53.218;6.640;2023-08-08T07:08:38;16.40;99.90
51950;DHT22;37974;53.218;6.640;2023-08-08T07:11:05;16.40;99.90
51950;DHT22;37974;53.218;6.640;2023-08-08T07:13:34;16.50;99.90
51950;DHT22;37974;53.218;6.640;2023-08-08T07:16:00;16.60;99.90
51950;DHT22;37974;53.218;6.640;2023-08-08T07:18:26;16.70;99.90
51950;DHT22;37974;53.218;6.640;2023-08-08T07:20:52;16.70;99.90
51950;DHT22;37974;53.218;6.640;2023-08-08T07:23:17;16.80;99.90
51950;DHT22;37974;53.218;6.640;2023-08-08T07:25:43;16.80;99.90
51950;DHT22;37974;53.218;6.640;2023-08-08T07:28:10;16.90;99.90
51950;DHT22;37974;53.218;6.640;2023-08-08T07:30:36;16.80;99.90
51950;DHT22;37974;53.218;6.640;2023-08-08T07:33:02;16.90;99.90
51950;DHT22;37974;53.218;6.640;2023-08-08T07:35:27;17.00;99.90
51950;DHT22;37974;53.218;6.640;2023-08-08T07:37:53;17.20;99.90
51950;DHT22;37974;53.218;6.640;2023-08-08T07:40:20;17.30;99.90
51950;DHT22;37974;53.218;6.640;2023-08-08T07:42:47;17.40;99.90
51950;DHT22;37974;53.218;6.640;2023-08-08T07:45:13;17.30;99.90
51950;DHT22;37974;53.218;6.640;2023-08-08T07:47:39;17.20;99.90
51950;DHT22;37974;53.218;6.640;2023-08-08T07:50:05;17.30;99.90
51950;DHT22;37974;53.218;6.640;2023-08-08T07:52:37;17.40;99.90
51950;DHT22;37974;53.218;6.640;2023-08-08T07:55:04;17.50;99.90
51950;DHT22;37974;53.218;6.640;2023-08-08T07:57:30;17.50;99.90
51950;DHT22;37974;53.218;6.640;2023-08-08T07:59:57;17.60;99.90
51950;DHT22;37974;53.218;6.640;2023-08-08T08:02:22;17.60;99.90
51950;DHT22;37974;53.218;6.640;2023-08-08T08:04:48;17.60;99.90
51950;DHT22;37974;53.218;6.640;2023-08-08T08:07:14;17.50;99.90
51950;DHT22;37974;53.218;6.640;2023-08-08T08:09:39;17.40;99.90
51950;DHT22;37974;53.218;6.640;2023-08-08T08:12:08;17.50;99.90
51950;DHT22;37974;53.218;6.640;2023-08-08T08:14:34;17.60;99.90
51950;DHT22;37974;53.218;6.640;2023-08-08T08:17:00;17.60;99.90
51950;DHT22;37974;53.218;6.640;2023-08-08T08:19:25;17.60;99.90
51950;DHT22;37974;53.218;6.640;2023-08-08T08:21:51;17.70;99.90
51950;DHT22;37974;53.218;6.640;2023-08-08T08:24:17;17.70;99.90
51950;DHT22;37974;53.218;6.640;2023-08-08T08:26:43;17.60;99.90
51950;DHT22;37974;53.218;6.640;2023-08-08T08:29:08;17.60;99.90
51950;DHT22;37974;53.218;6.640;2023-08-08T08:31:34;17.60;99.90
51950;DHT22;37974;53.218;6.640;2023-08-08T08:33:59;17.70;99.90
51950;DHT22;37974;53.218;6.640;2023-08-08T08:36:25;17.60;99.90
51950;DHT22;37974;53.218;6.640;2023-08-08T08:38:51;17.50;99.90
51950;DHT22;37974;53.218;6.640;2023-08-08T08:41:18;17.30;99.90
51950;DHT22;37974;53.218;6.640;2023-08-08T08:43:46;17.20;99.90
51950;DHT22;37974;53.218;6.640;2023-08-08T08:46:14;17.20;99.90
51950;DHT22;37974;53.218;6.640;2023-08-08T08:48:44;17.30;99.90
51950;DHT22;37974;53.218;6.640;2023-08-08T08:51:10;17.30;99.90
51950;DHT22;37974;53.218;6.640;2023-08-08T08:53:36;17.20;99.90
51950;DHT22;37974;53.218;6.640;2023-08-08T08:56:04;17.20;99.90
51950;DHT22;37974;53.218;6.640;2023-08-08T08:58:30;17.10;99.90
51950;DHT22;37974;53.218;6.640;2023-08-08T09:00:58;17.10;99.90
51950;DHT22;37974;53.218;6.640;2023-08-08T09:03:24;17.50;99.90
51950;DHT22;37974;53.218;6.640;2023-08-08T09:05:51;17.80;99.90
51950;DHT22;37974;53.218;6.640;2023-08-08T09:08:17;17.80;99.90
51950;DHT22;37974;53.218;6.640;2023-08-08T09:10:43;17.70;99.90
51950;DHT22;37974;53.218;6.640;2023-08-08T09:13:09;17.70;99.90
51950;DHT22;37974;53.218;6.640;2023-08-08T09:15:35;17.90;99.90
51950;DHT22;37974;53.218;6.640;2023-08-08T09:18:01;18.00;99.90
51950;DHT22;37974;53.218;6.640;2023-08-08T09:20:28;17.80;99.90
51950;DHT22;37974;53.218;6.640;2023-08-08T09:22:54;17.50;99.90
51950;DHT22;37974;53.218;6.640;2023-08-08T09:25:20;17.40;99.90
51950;DHT22;37974;53.218;6.640;2023-08-08T09:27:46;17.40;99.90
51950;DHT22;37974;53.218;6.640;2023-08-08T09:30:13;17.40;99.90
51950;DHT22;37974;53.218;6.640;2023-08-08T09:32:39;17.50;99.90
51950;DHT22;37974;53.218;6.640;2023-08-08T09:35:05;17.60;99.90
51950;DHT22;37974;53.218;6.640;2023-08-08T09:37:34;17.80;99.90
51950;DHT22;37974;53.218;6.640;2023-08-08T09:40:02;17.90;99.90
51950;DHT22;37974;53.218;6.640;2023-08-08T09:42:29;18.10;99.90
51950;DHT22;37974;53.218;6.640;2023-08-08T09:44:58;18.40;99.90
51950;DHT22;37974;53.218;6.640;2023-08-08T09:47:25;18.50;99.90
51950;DHT22;37974;53.218;6.640;2023-08-08T09:50:00;18.50;99.90
51950;DHT22;37974;53.218;6.640;2023-08-08T09:52:28;18.60;99.90
51950;DHT22;37974;53.218;6.640;2023-08-08T09:54:55;18.80;99.90
51950;DHT22;37974;53.218;6.640;2023-08-08T09:57:24;19.10;99.90
51950;DHT22;37974;53.218;6.640;2023-08-08T09:59:51;19.30;99.90
51950;DHT22;37974;53.218;6.640;2023-08-08T10:02:18;19.40;99.90
51950;DHT22;37974;53.218;6.640;2023-08-08T10:04:47;19.20;99.90
51950;DHT22;37974;53.218;6.640;2023-08-08T10:07:13;18.80;99.90
51950;DHT22;37974;53.218;6.640;2023-08-08T10:09:39;18.50;99.90
51950;DHT22;37974;53.218;6.640;2023-08-08T10:12:06;18.00;99.90
51950;DHT22;37974;53.218;6.640;2023-08-08T10:14:35;17.50;99.90
51950;DHT22;37974;53.218;6.640;2023-08-08T10:17:06;17.10;99.90
51950;DHT22;37974;53.218;6.640;2023-08-08T10:19:32;16.80;99.90
51950;DHT22;37974;53.218;6.640;2023-08-08T10:22:04;16.60;99.90
51950;DHT22;37974;53.218;6.640;2023-08-08T10:24:36;16.50;99.90
51950;DHT22;37974;53.218;6.640;2023-08-08T10:27:03;16.50;99.90
51950;DHT22;37974;53.218;6.640;2023-08-08T10:29:32;16.70;99.90
51950;DHT22;37974;53.218;6.640;2023-08-08T10:32:04;17.00;99.90
51950;DHT22;37974;53.218;6.640;2023-08-08T10:37:24;17.10;99.90
51950;DHT22;37974;53.218;6.640;2023-08-08T10:42:23;16.90;99.90
51950;DHT22;37974;53.218;6.640;2023-08-08T10:44:54;16.90;99.90
51950;DHT22;37974;53.218;6.640;2023-08-08T10:47:31;16.90;99.90
51950;DHT22;37974;53.218;6.640;2023-08-08T10:50:11;17.10;99.90
51950;DHT22;37974;53.218;6.640;2023-08-08T10:58:13;17.70;99.90
51950;DHT22;37974;53.218;6.640;2023-08-08T11:00:41;17.90;99.90
51950;DHT22;37974;53.218;6.640;2023-08-08T11:03:07;18.00;99.90
51950;DHT22;37974;53.218;6.640;2023-08-08T11:05:35;18.20;99.90
51950;DHT22;37974;53.218;6.640;2023-08-08T11:08:03;18.30;99.90
51950;DHT22;37974;53.218;6.640;2023-08-08T11:10:34;18.50;99.90
51950;DHT22;37974;53.218;6.640;2023-08-08T11:13:03;18.60;99.90
51950;DHT22;37974;53.218;6.640;2023-08-08T11:15:29;18.80;99.90
51950;DHT22;37974;53.218;6.640;2023-08-08T11:17:56;18.90;99.90
51950;DHT22;37974;53.218;6.640;2023-08-08T11:20:23;19.00;99.90
51950;DHT22;37974;53.218;6.640;2023-08-08T11:22:56;19.10;99.90
51950;DHT22;37974;53.218;6.640;2023-08-08T11:25:25;19.20;99.90
51950;DHT22;37974;53.218;6.640;2023-08-08T11:27:52;19.30;99.90
51950;DHT22;37974;53.218;6.640;2023-08-08T11:30:18;19.10;99.90
51950;DHT22;37974;53.218;6.640;2023-08-08T11:32:46;19.10;99.90
51950;DHT22;37974;53.218;6.640;2023-08-08T11:35:13;19.10;99.90
51950;DHT22;37974;53.218;6.640;2023-08-08T11:37:41;19.20;99.90
51950;DHT22;37974;53.218;6.640;2023-08-08T11:40:07;19.30;99.90
51950;DHT22;37974;53.218;6.640;2023-08-08T11:42:34;19.40;99.90
51950;DHT22;37974;53.218;6.640;2023-08-08T11:45:01;19.40;99.90
51950;DHT22;37974;53.218;6.640;2023-08-08T11:47:26;19.40;99.90
51950;DHT22;37974;53.218;6.640;2023-08-08T11:49:53;19.30;99.90
51950;DHT22;37974;53.218;6.640;2023-08-08T11:52:19;19.30;99.90
51950;DHT22;37974;53.218;6.640;2023-08-08T11:54:51;19.40;99.90
51950;DHT22;37974;53.218;6.640;2023-08-08T11:57:17;19.50;99.90
51950;DHT22;37974;53.218;6.640;2023-08-08T11:59:43;19.40;99.90
51950;DHT22;37974;53.218;6.640;2023-08-08T12:02:10;19.10;99.90
51950;DHT22;37974;53.218;6.640;2023-08-08T12:04:36;19.20;99.90
51950;DHT22;37974;53.218;6.640;2023-08-08T12:07:02;19.40;99.90
51950;DHT22;37974;53.218;6.640;2023-08-08T12:09:31;19.50;99.90
51950;DHT22;37974;53.218;6.640;2023-08-08T12:12:02;19.50;99.90
51950;DHT22;37974;53.218;6.640;2023-08-08T12:14:29;19.50;99.90
51950;DHT22;37974;53.218;6.640;2023-08-08T12:16:55;19.40;99.90
51950;DHT22;37974;53.218;6.640;2023-08-08T12:19:25;19.30;99.90
51950;DHT22;37974;53.218;6.640;2023-08-08T12:21:51;19.40;99.90
51950;DHT22;37974;53.218;6.640;2023-08-08T12:24:18;19.20;99.90
51950;DHT22;37974;53.218;6.640;2023-08-08T12:26:44;18.90;99.90
51950;DHT22;37974;53.218;6.640;2023-08-08T12:29:10;18.60;99.90
51950;DHT22;37974;53.218;6.640;2023-08-08T12:31:35;18.30;99.90
51950;DHT22;37974;53.218;6.640;2023-08-08T12:34:01;18.30;99.90
51950;DHT22;37974;53.218;6.640;2023-08-08T12:36:27;18.50;99.90
51950;DHT22;37974;53.218;6.640;2023-08-08T12:38:53;18.50;99.90
51950;DHT22;37974;53.218;6.640;2023-08-08T12:41:19;18.60;99.90
51950;DHT22;37974;53.218;6.640;2023-08-08T12:43:44;18.80;99.90
51950;DHT22;37974;53.218;6.640;2023-08-08T12:46:10;18.80;99.90
51950;DHT22;37974;53.218;6.640;2023-08-08T12:48:35;18.60;99.90
51950;DHT22;37974;53.218;6.640;2023-08-08T12:51:02;18.50;99.90
51950;DHT22;37974;53.218;6.640;2023-08-08T12:53:28;18.50;99.90
51950;DHT22;37974;53.218;6.640;2023-08-08T12:55:53;18.40;99.90
51950;DHT22;37974;53.218;6.640;2023-08-08T12:58:19;18.30;99.90
51950;DHT22;37974;53.218;6.640;2023-08-08T13:00:45;18.30;99.90
51950;DHT22;37974;53.218;6.640;2023-08-08T13:03:11;18.30;99.90
51950;DHT22;37974;53.218;6.640;2023-08-08T13:05:38;18.30;99.90
51950;DHT22;37974;53.218;6.640;2023-08-08T13:08:04;18.30;99.90
51950;DHT22;37974;53.218;6.640;2023-08-08T13:10:30;18.40;99.90
51950;DHT22;37974;53.218;6.640;2023-08-08T13:12:56;18.50;99.90
51950;DHT22;37974;53.218;6.640;2023-08-08T13:15:22;18.50;99.90
51950;DHT22;37974;53.218;6.640;2023-08-08T13:17:47;18.40;99.90
51950;DHT22;37974;53.218;6.640;2023-08-08T13:20:13;18.30;99.90
51950;DHT22;37974;53.218;6.640;2023-08-08T13:22:39;18.10;99.90
51950;DHT22;37974;53.218;6.640;2023-08-08T13:25:06;18.00;99.90
51950;DHT22;37974;53.218;6.640;2023-08-08T13:27:32;18.00;99.90
51950;DHT22;37974;53.218;6.640;2023-08-08T13:29:58;18.20;99.90
51950;DHT22;37974;53.218;6.640;2023-08-08T13:32:23;18.20;99.90
51950;DHT22;37974;53.218;6.640;2023-08-08T13:34:50;18.40;99.90
51950;DHT22;37974;53.218;6.640;2023-08-08T13:37:15;18.50;99.90
51950;DHT22;37974;53.218;6.640;2023-08-08T13:39:42;18.60;99.90
51950;DHT22;37974;53.218;6.640;2023-08-08T13:42:08;18.80;99.90
51950;DHT22;37974;53.218;6.640;2023-08-08T13:44:34;19.00;99.90
51950;DHT22;37974;53.218;6.640;2023-08-08T13:47:00;19.20;99.90
51950;DHT22;37974;53.218;6.640;2023-08-08T13:49:26;19.30;99.90
51950;DHT22;37974;53.218;6.640;2023-08-08T13:51:53;19.20;99.90
51950;DHT22;37974;53.218;6.640;2023-08-08T13:54:19;19.00;99.90
51950;DHT22;37974;53.218;6.640;2023-08-08T13:56:45;18.70;99.90
51950;DHT22;37974;53.218;6.640;2023-08-08T13:59:11;18.60;99.90
51950;DHT22;37974;53.218;6.640;2023-08-08T14:01:37;18.50;99.90
51950;DHT22;37974;53.218;6.640;2023-08-08T14:04:03;18.30;99.90
51950;DHT22;37974;53.218;6.640;2023-08-08T14:06:29;18.20;99.90
51950;DHT22;37974;53.218;6.640;2023-08-08T14:08:56;18.30;99.90
51950;DHT22;37974;53.218;6.640;2023-08-08T14:11:22;18.50;99.90
51950;DHT22;37974;53.218;6.640;2023-08-08T14:13:48;18.60;99.90
51950;DHT22;37974;53.218;6.640;2023-08-08T14:16:14;18.70;99.90
51950;DHT22;37974;53.218;6.640;2023-08-08T14:18:40;18.70;99.90
51950;DHT22;37974;53.218;6.640;2023-08-08T14:21:06;18.60;99.90
51950;DHT22;37974;53.218;6.640;2023-08-08T14:23:31;18.50;99.90
51950;DHT22;37974;53.218;6.640;2023-08-08T14:25:57;18.60;99.90
51950;DHT22;37974;53.218;6.640;2023-08-08T14:28:23;18.50;99.90
51950;DHT22;37974;53.218;6.640;2023-08-08T14:30:49;18.40;99.90
51950;DHT22;37974;53.218;6.640;2023-08-08T14:33:15;18.50;99.90
51950;DHT22;37974;53.218;6.640;2023-08-08T14:35:42;18.40;99.90
51950;DHT22;37974;53.218;6.640;2023-08-08T14:38:07;18.30;99.90
51950;DHT22;37974;53.218;6.640;2023-08-08T14:40:33;18.00;99.90
51950;DHT22;37974;53.218;6.640;2023-08-08T14:43:00;18.00;99.90
51950;DHT22;37974;53.218;6.640;2023-08-08T14:45:27;18.00;99.90
51950;DHT22;37974;53.218;6.640;2023-08-08T14:47:53;18.20;99.90
51950;DHT22;37974;53.218;6.640;2023-08-08T14:50:19;18.30;99.90
51950;DHT22;37974;53.218;6.640;2023-08-08T14:52:45;18.50;99.90
51950;DHT22;37974;53.218;6.640;2023-08-08T14:55:11;18.40;99.90
51950;DHT22;37974;53.218;6.640;2023-08-08T14:57:36;18.20;99.90
51950;DHT22;37974;53.218;6.640;2023-08-08T15:00:03;18.20;99.90
51950;DHT22;37974;53.218;6.640;2023-08-08T15:02:30;18.20;99.90
51950;DHT22;37974;53.218;6.640;2023-08-08T15:04:55;18.10;99.90
51950;DHT22;37974;53.218;6.640;2023-08-08T15:07:21;18.20;99.90
51950;DHT22;37974;53.218;6.640;2023-08-08T15:09:47;18.20;99.90
51950;DHT22;37974;53.218;6.640;2023-08-08T15:12:17;18.30;99.90
51950;DHT22;37974;53.218;6.640;2023-08-08T15:14:43;18.30;99.90
51950;DHT22;37974;53.218;6.640;2023-08-08T15:17:09;18.40;99.90
51950;DHT22;37974;53.218;6.640;2023-08-08T15:19:35;18.40;99.90
51950;DHT22;37974;53.218;6.640;2023-08-08T15:22:00;18.50;99.90
51950;DHT22;37974;53.218;6.640;2023-08-08T15:24:26;18.50;99.90
51950;DHT22;37974;53.218;6.640;2023-08-08T15:26:52;18.50;99.90
51950;DHT22;37974;53.218;6.640;2023-08-08T15:29:18;18.40;99.90
51950;DHT22;37974;53.218;6.640;2023-08-08T15:31:43;18.40;99.90
51950;DHT22;37974;53.218;6.640;2023-08-08T15:34:09;18.50;99.90
51950;DHT22;37974;53.218;6.640;2023-08-08T15:36:35;18.40;99.90